CST,Max TemperatureF,Mean TemperatureF,Min TemperatureF,Max Dew PointF,MeanDew PointF,Min DewpointF,Max Humidity, Mean Humidity, Min Humidity, Max Sea Level PressureIn, Mean Sea Level PressureIn, Min Sea Level PressureIn, Max VisibilityMiles, Mean VisibilityMiles, Min VisibilityMiles, Max Wind SpeedMPH, Mean Wind SpeedMPH, Max Gust SpeedMPH,PrecipitationIn, CloudCover, Events, WindDirDegrees
2014-2-1,19,10,0,11,2,-9,76,68,58,30.27,30.05,29.90,10,10,9,15,8,21,0.00,3,,245
2014-2-2,10,0,-11,0,-6,-16,91,76,61,30.37,30.31,30.25,10,10,10,10,5,,0.00,0,,205
2014-2-3,17,9,1,5,1,-4,88,74,56,30.42,30.29,30.22,10,10,6,9,5,,0.00,0,,259
2014-2-4,9,4,0,-2,-5,-10,83,67,55,30.53,30.48,30.42,10,10,9,14,5,21,0.00,1,,344
2014-2-5,3,-2,-6,-4,-8,-12,76,67,60,30.59,30.54,30.47,10,8,2,15,10,22,0.00,6,Snow,316
2014-2-6,3,-6,-14,-6,-12,-21,84,72,58,30.54,30.41,30.25,10,9,3,17,7,25,0.00,3,,250
2014-2-7,10,2,-7,-3,-8,-13,80,66,48,30.28,30.24,30.20,10,10,10,18,9,23,0.00,0,,226
2014-2-8,16,7,-2,7,1,-9,88,77,68,30.22,30.17,30.10,10,9,3,8,3,,0.00,5,Snow,257
2014-2-9,6,0,-7,1,-8,-14,80,68,55,30.47,30.33,30.15,10,9,7,17,9,20,0.00,0,,305
2014-2-10,5,-3,-11,-8,-12,-17,80,69,55,30.55,30.52,30.48,10,10,10,8,6,,0.00,0,,291
2014-2-11,14,0,-13,6,-7,-19,91,72,56,30.53,30.32,30.05,10,8,1,20,7,23,0.00,4,,176
2014-2-12,24,20,15,16,14,7,88,81,68,30.14,30.04,29.83,10,6,1,14,7,,0.01,8,Snow,196
2014-2-13,28,17,3,23,12,-3,93,78,67,29.79,29.61,29.43,10,6,2,26,14,33,0.00,6,Snow,228
2014-2-14,15,8,1,2,-2,-4,83,71,56,30.09,29.97,29.80,10,10,10,14,8,,0.00,1,,294
2014-2-15,19,8,-2,14,9,-8,88,78,65,30.08,29.90,29.76,10,6,0,17,7,,0.04,7,Fog-Snow,148
2014-2-16,21,14,7,14,8,3,87,71,57,30.28,30.16,30.02,10,10,9,18,8,26,0.00,4,,98
2014-2-17,30,24,19,23,19,14,93,84,68,30.00,29.75,29.64,10,3,0,23,14,34,0.22,6,Fog-Snow,178
2014-2-18,39,30,21,28,22,16,93,71,53,29.79,29.66,29.57,10,9,4,10,6,,0.00,1,,225
2014-2-19,39,29,19,30,24,18,96,82,65,29.86,29.79,29.69,10,8,2,14,8,,0.00,2,,197
2014-2-20,36,28,16,34,29,12,100,89,73,29.68,29.43,29.27,10,3,0,28,10,39,0.45,7,Fog-Rain-Snow,3
2014-2-21,17,12,6,12,5,0,86,75,67,29.83,29.53,29.31,10,6,1,26,18,34,0.00,3,Snow,279
2014-2-22,14,8,3,4,1,-2,80,70,62,30.20,30.03,29.85,10,10,10,16,11,25,0.00,0,,267
2014-2-23,16,7,-2,5,0,-7,82,70,59,30.33,30.28,30.22,10,10,10,15,9,23,0.00,0,,269
2014-2-24,10,4,-2,3,-2,-9,80,71,56,30.40,30.35,30.30,10,8,2,15,9,,0.00,4,Snow,281
2014-2-25,5,-2,-9,-5,-11,-18,79,66,55,30.43,30.38,30.32,10,10,10,17,10,24,0.00,0,,287
2014-2-26,19,2,-14,7,-8,-18,82,65,48,30.41,29.99,29.69,10,9,3,26,13,41,0.00,2,,266
2014-2-27,-2,-8,-14,-18,-22,-25,59,50,40,30.27,30.19,30.02,10,9,2,15,9,24,0.00,1,,293
2014-2-28,14,2,-9,7,-2,-20,85,69,54,30.22,29.99,29.88,10,8,0,15,8,23,0.00,6,Snow,194